createdAt,value
2022-09-04T00:02:22.947Z,154006.97
2022-09-04T00:04:58.346Z,153988.91
2022-09-04T00:07:29.383Z,154009.59
2022-09-04T00:10:11.292Z,154022.50
2022-09-04T00:12:45.851Z,154030.28
2022-09-04T00:15:19.433Z,154069.09
2022-09-04T00:17:53.973Z,154038.03
2022-09-04T00:20:32.039Z,154027.69
2022-09-04T00:23:03.875Z,154045.81
2022-09-04T00:25:37.412Z,154025.09
2022-09-04T00:28:11.765Z,153996.66
2022-09-04T00:30:54.067Z,154019.91
2022-09-04T00:33:29.748Z,154030.28
2022-09-04T00:36:02.898Z,154006.97
2022-09-04T00:38:39.839Z,153982.41
2022-09-04T00:41:16.768Z,154036.72
2022-09-04T00:44:08.638Z,154019.91
2022-09-04T00:47:07.465Z,154014.78
2022-09-04T00:49:47.189Z,154016.06
2022-09-04T00:52:36.287Z,154032.88
2022-09-04T00:55:18.238Z,154058.75
2022-09-04T00:58:03.923Z,154054.84
2022-09-04T01:00:32.485Z,154069.09
2022-09-04T01:03:15.290Z,154058.75
2022-09-04T01:06:09.196Z,154008.28
2022-09-04T01:08:49.490Z,153966.91
2022-09-04T01:11:35.734Z,153929.41
2022-09-04T01:14:13.503Z,153937.19
2022-09-04T01:16:47.905Z,153994.06
2022-09-04T01:19:30.942Z,153942.34
2022-09-04T01:22:14.277Z,153983.72
2022-09-04T01:25:03.795Z,153983.72
2022-09-04T01:27:41.115Z,153985.00
2022-09-04T01:30:11.952Z,153991.50
2022-09-04T01:33:00.721Z,153950.13
2022-09-04T01:35:35.353Z,153963.06
2022-09-04T01:38:18.529Z,153965.66
2022-09-04T01:40:50.904Z,153970.78
2022-09-04T01:43:21.960Z,153952.66
2022-09-04T01:46:05.937Z,153893.22
2022-09-04T01:48:43.257Z,153841.47
2022-09-04T01:51:19.748Z,153846.63
2022-09-04T01:53:59.797Z,153832.41
2022-09-04T01:56:39.131Z,153882.91
2022-09-04T01:59:16.882Z,153928.13
2022-09-04T02:01:55.986Z,153895.81
2022-09-04T02:04:29.477Z,153851.81
2022-09-04T02:07:14.020Z,153869.97
2022-09-04T02:09:44.452Z,153867.38
2022-09-04T02:12:21.347Z,153846.63
2022-09-04T02:15:00.060Z,153854.41
2022-09-04T02:17:37.554Z,153880.31
2022-09-04T02:20:17.593Z,153919.09
2022-09-04T02:22:55.474Z,153955.25
2022-09-04T02:25:29.504Z,153921.69
2022-09-04T02:28:11.019Z,153924.28
2022-09-04T02:30:46.564Z,153943.63
2022-09-04T02:33:30.199Z,153963.06
2022-09-04T02:36:06.190Z,153921.69
2022-09-04T02:38:43.214Z,153910.06
2022-09-04T02:41:19.578Z,153860.84
2022-09-04T02:44:00.795Z,153847.94
2022-09-04T02:46:41.203Z,153895.81
2022-09-04T02:49:19.524Z,153908.75
2022-09-04T02:51:59.051Z,153911.34
2022-09-04T02:54:52.401Z,153832.41
2022-09-04T02:57:33.396Z,153885.44
2022-09-04T03:00:07.461Z,153898.38
2022-09-04T03:02:41.937Z,153904.88
2022-09-04T03:05:18.689Z,153930.72
2022-09-04T03:07:54.714Z,153939.75
2022-09-04T03:10:27.480Z,153911.34
2022-09-04T03:13:00.919Z,153902.25
2022-09-04T03:15:37.057Z,153917.78
2022-09-04T03:18:16.265Z,153913.88
2022-09-04T03:20:52.276Z,153888.03
2022-09-04T03:23:24.914Z,153880.31
2022-09-04T03:26:24.139Z,153875.13
2022-09-04T03:29:03.870Z,153831.09
2022-09-04T03:31:38.083Z,153822.06
2022-09-04T03:34:19.684Z,153866.09
2022-09-04T03:37:01.385Z,153785.91
2022-09-04T03:39:41.573Z,153800.13
2022-09-04T03:42:15.138Z,153789.81
2022-09-04T03:44:57.554Z,153797.53
2022-09-04T03:47:38.445Z,153850.50
2022-09-04T03:50:18.969Z,153884.19
2022-09-04T03:52:59.146Z,153800.13
2022-09-04T03:55:42.001Z,153823.38
2022-09-04T03:58:18.785Z,153774.28
2022-09-04T04:00:57.057Z,153796.22
2022-09-04T04:03:46.131Z,153782.00
2022-09-04T04:06:24.265Z,153820.78
2022-09-04T04:09:18.735Z,153825.97
2022-09-04T04:12:13.378Z,153818.19
2022-09-04T04:15:01.009Z,153833.72
2022-09-04T04:17:44.026Z,153859.56
2022-09-04T04:20:24.514Z,153810.44
2022-09-04T04:23:17.806Z,153857.00
2022-09-04T04:26:03.084Z,153906.16
2022-09-04T04:28:56.987Z,153867.38
2022-09-04T04:31:34.579Z,153828.56
2022-09-04T04:34:10.439Z,153815.63
2022-09-04T04:36:48.311Z,153837.59
2022-09-04T04:39:29.483Z,153862.16
2022-09-04T04:42:17.154Z,153851.81
2022-09-04T04:45:20.417Z,153837.59
2022-09-04T04:48:36.186Z,153869.97
2022-09-04T04:51:09.541Z,153891.94
2022-09-04T04:53:44.091Z,153899.66
2022-09-04T04:56:19.839Z,153890.63
2022-09-04T04:59:04.278Z,153898.38
2022-09-04T05:01:43.359Z,153890.63
2022-09-04T05:04:19.048Z,153913.88
2022-09-04T05:06:55.788Z,153925.53
2022-09-04T05:09:33.768Z,153983.72
2022-09-04T05:12:11.511Z,153911.34
2022-09-04T05:14:51.227Z,153929.41
2022-09-04T05:17:27.273Z,153929.41
2022-09-04T05:20:17.550Z,153893.22
2022-09-04T05:22:50.543Z,153922.97
2022-09-04T05:25:26.597Z,153884.19
2022-09-04T05:28:03.932Z,153880.31
2022-09-04T05:30:43.480Z,153910.06
2022-09-04T05:33:18.820Z,153924.28
2022-09-04T05:35:53.004Z,153973.38
2022-09-04T05:38:28.185Z,153952.66
2022-09-04T05:41:06.952Z,153956.56
2022-09-04T05:43:54.888Z,153956.56
2022-09-04T05:46:38.997Z,153975.97
2022-09-04T05:49:18.768Z,153991.50
2022-09-04T05:52:10.013Z,153964.34
2022-09-04T05:55:16.007Z,153991.50
2022-09-04T05:57:58.312Z,154009.59
2022-09-04T06:00:32.189Z,154052.25
2022-09-04T06:03:31.430Z,154035.44
2022-09-04T06:06:07.442Z,154074.22
2022-09-04T06:09:08.119Z,154080.72
2022-09-04T06:11:52.179Z,154127.31
2022-09-04T06:14:34.979Z,154124.72
2022-09-04T06:17:21.724Z,154096.25
2022-09-04T06:20:00.680Z,154107.88
2022-09-04T06:22:38.697Z,154115.63
2022-09-04T06:25:28.375Z,154093.66
2022-09-04T06:28:24.285Z,154162.28
2022-09-04T06:31:00.477Z,154198.47
2022-09-04T06:33:46.409Z,154247.69
2022-09-04T06:36:36.656Z,154311.06
2022-09-04T06:39:31.823Z,154300.72
2022-09-04T06:42:16.076Z,154360.25
2022-09-04T06:45:02.922Z,154343.47
2022-09-04T06:47:46.115Z,154373.19
2022-09-04T06:50:25.728Z,154371.88
2022-09-04T06:53:08.636Z,154409.53
2022-09-04T06:55:45.815Z,154444.44
2022-09-04T06:58:29.621Z,154524.72
2022-09-04T07:01:03.990Z,154527.34
2022-09-04T07:03:53.641Z,154564.88
2022-09-04T07:06:36.535Z,154615.38
2022-09-04T07:09:11.856Z,154632.22
2022-09-04T07:11:59.037Z,154594.69
2022-09-04T07:14:43.327Z,154681.56
2022-09-04T07:17:18.331Z,154675.03
2022-09-04T07:20:04.531Z,154676.34
2022-09-04T07:22:48.695Z,154739.81
2022-09-04T07:25:26.143Z,154800.75
2022-09-04T07:28:12.395Z,154791.66
2022-09-04T07:30:45.465Z,154820.16
2022-09-04T07:33:17.859Z,154761.88
2022-09-04T07:35:52.490Z,154843.53
2022-09-04T07:38:31.585Z,154934.31
2022-09-04T07:41:09.238Z,154983.56
2022-09-04T07:43:46.058Z,154892.81
2022-09-04T07:46:21.342Z,155018.59
2022-09-04T07:48:55.333Z,155061.41
2022-09-04T07:51:29.945Z,155030.25
2022-09-04T07:54:27.724Z,154980.97
2022-09-04T07:57:14.251Z,155047.13
2022-09-04T08:00:07.761Z,155027.66
2022-09-04T08:02:56.464Z,155076.94
2022-09-04T08:05:28.607Z,155130.16
2022-09-04T08:08:39.592Z,155180.78
2022-09-04T08:11:23.414Z,155232.69
2022-09-04T08:14:15.133Z,155157.41
2022-09-04T08:16:53.485Z,155191.16
2022-09-04T08:19:41.495Z,155192.47
2022-09-04T08:22:14.174Z,155285.88
2022-09-04T08:24:57.226Z,155336.53
2022-09-04T08:27:44.551Z,155404.03
2022-09-04T08:30:14.236Z,155506.63
2022-09-04T08:33:01.373Z,155528.72
2022-09-04T08:35:34.169Z,155528.72
2022-09-04T08:38:18.977Z,155507.91
2022-09-04T08:41:18.453Z,155496.19
2022-09-04T08:44:12.635Z,155433.88
2022-09-04T08:47:21.644Z,155505.31
2022-09-04T08:50:14.899Z,155484.50
2022-09-04T08:53:22.321Z,155468.91
2022-09-04T08:56:08.104Z,155615.75
2022-09-04T08:59:09.814Z,155711.94
2022-09-04T09:02:04.159Z,155728.78
2022-09-04T09:05:04.664Z,155750.91
2022-09-04T09:08:21.439Z,155788.56
2022-09-04T09:11:27.494Z,155848.38
2022-09-04T09:14:27.763Z,155856.16
2022-09-04T09:17:12.263Z,155861.38
2022-09-04T09:19:45.301Z,155934.16
2022-09-04T09:22:39.256Z,156007.00
2022-09-04T09:25:21.122Z,156060.28
2022-09-04T09:28:23.309Z,156121.44
2022-09-04T09:31:24.961Z,155987.47
2022-09-04T09:34:31.838Z,156113.66
2022-09-04T09:37:34.782Z,156057.69
2022-09-04T09:40:31.703Z,156114.97
2022-09-04T09:43:24.391Z,156074.59
2022-09-04T09:46:12.629Z,156117.56
2022-09-04T09:49:14.768Z,156196.91
2022-09-04T09:52:19.841Z,156264.59
2022-09-04T09:55:21.211Z,156271.06
2022-09-04T09:58:31.929Z,156221.63
2022-09-04T10:01:17.037Z,156248.94
2022-09-04T10:04:11.695Z,156113.66
2022-09-04T10:07:04.012Z,156269.81
2022-09-04T10:10:06.799Z,156353.06
2022-09-04T10:13:25.154Z,156364.81
2022-09-04T10:16:20.352Z,156418.16
2022-09-04T10:19:19.254Z,156350.50
2022-09-04T10:22:20.320Z,156440.31
2022-09-04T10:25:25.236Z,156398.63
2022-09-04T10:28:15.988Z,156334.88
2022-09-04T10:31:04.882Z,156306.25
2022-09-04T10:33:45.463Z,156308.84
2022-09-04T10:36:30.065Z,156329.66
2022-09-04T10:39:28.740Z,156359.59
2022-09-04T10:42:07.691Z,156324.47
2022-09-04T10:44:58.617Z,156392.13
2022-09-04T10:47:38.588Z,156467.66
2022-09-04T10:50:24.703Z,156539.25
2022-09-04T10:53:28.599Z,156610.88
2022-09-04T10:56:07.403Z,156488.47
2022-09-04T10:58:54.732Z,156488.47
2022-09-04T11:01:53.308Z,156495.00
2022-09-04T11:04:45.745Z,156504.09
2022-09-04T11:07:37.675Z,156381.69
2022-09-04T11:10:20.734Z,156472.88
2022-09-04T11:13:07.644Z,156445.53
2022-09-04T11:15:52.010Z,156403.84
2022-09-04T11:18:33.531Z,156311.41
2022-09-04T11:21:47.918Z,156403.84
2022-09-04T11:24:53.436Z,156435.03
2022-09-04T11:27:56.459Z,156517.09
2022-09-04T11:30:32.644Z,156366.06
2022-09-04T11:33:30.285Z,156329.66
2022-09-04T11:36:29.613Z,156389.53
2022-09-04T11:39:17.622Z,156449.41
2022-09-04T11:42:26.623Z,156508.00
2022-09-04T11:45:21.149Z,156553.59
2022-09-04T11:48:15.896Z,156480.66
2022-09-04T11:51:03.781Z,156547.06
2022-09-04T11:53:48.344Z,156552.28
2022-09-04T11:56:34.495Z,156621.34
2022-09-04T11:59:23.379Z,156639.53
2022-09-04T12:02:07.452Z,156704.69
2022-09-04T12:04:55.168Z,156732.03
2022-09-04T12:07:43.055Z,156566.59
2022-09-04T12:10:37.565Z,156584.81
2022-09-04T12:13:27.783Z,156593.94
2022-09-04T12:16:47.804Z,156564.00
2022-09-04T12:19:45.215Z,156556.16
2022-09-04T12:22:43.379Z,156571.78
2022-09-04T12:25:29.464Z,156644.75
2022-09-04T12:28:15.677Z,156584.81
2022-09-04T12:30:58.460Z,156514.53
2022-09-04T12:33:46.587Z,156483.28
2022-09-04T12:36:42.392Z,156610.88
2022-09-04T12:39:36.231Z,156657.78
2022-09-04T12:42:10.544Z,156595.25
2022-09-04T12:44:51.503Z,156650.00
2022-09-04T12:47:32.687Z,156596.56
2022-09-04T12:50:28.014Z,156590.03
2022-09-04T12:53:27.206Z,156618.72
2022-09-04T12:56:05.751Z,156506.69
2022-09-04T12:58:52.224Z,156397.31
2022-09-04T13:01:32.766Z,156371.28
2022-09-04T13:04:12.688Z,156465.03
2022-09-04T13:06:54.051Z,156472.88
2022-09-04T13:09:31.136Z,156553.59
2022-09-04T13:12:09.019Z,156506.69
2022-09-04T13:15:04.173Z,156552.28
2022-09-04T13:17:43.520Z,156485.91
2022-09-04T13:20:20.779Z,156487.19
2022-09-04T13:23:04.482Z,156401.22
2022-09-04T13:25:42.958Z,156414.25
2022-09-04T13:28:23.650Z,156437.72
2022-09-04T13:31:00.785Z,156440.31
2022-09-04T13:33:49.101Z,156485.91
2022-09-04T13:36:29.051Z,156470.28
2022-09-04T13:39:40.335Z,156454.63
2022-09-04T13:42:26.427Z,156431.19
2022-09-04T13:44:59.808Z,156457.25
2022-09-04T13:47:35.547Z,156446.84
2022-09-04T13:50:10.046Z,156446.84
2022-09-04T13:52:41.727Z,156498.91
2022-09-04T13:55:17.903Z,156501.53
2022-09-04T13:57:51.896Z,156504.09
2022-09-04T14:00:22.304Z,156493.69
2022-09-04T14:02:58.119Z,156489.75
2022-09-04T14:05:29.530Z,156457.25
2022-09-04T14:08:03.956Z,156449.41
2022-09-04T14:11:00.319Z,156440.31
2022-09-04T14:13:44.851Z,156475.44
2022-09-04T14:16:15.109Z,156448.09
2022-09-04T14:19:00.020Z,156454.63
2022-09-04T14:21:42.467Z,156457.25
2022-09-04T14:24:18.897Z,156431.19
2022-09-04T14:26:57.638Z,156419.47
2022-09-04T14:29:36.151Z,156427.25
2022-09-04T14:32:12.259Z,156425.94
2022-09-04T14:34:53.320Z,156436.34
2022-09-04T14:37:38.316Z,156428.56
2022-09-04T14:40:14.523Z,156444.25
2022-09-04T14:42:52.074Z,156423.34
2022-09-04T14:45:35.328Z,156444.25
2022-09-04T14:48:06.244Z,156444.25
2022-09-04T14:50:46.383Z,156437.72
2022-09-04T14:53:22.456Z,156442.94
2022-09-04T14:56:14.636Z,156441.63
2022-09-04T14:58:50.757Z,156448.09
2022-09-04T15:01:20.952Z,156429.88
2022-09-04T15:03:55.298Z,156441.63
2022-09-04T15:06:31.955Z,156407.72
2022-09-04T15:09:19.697Z,156399.91
2022-09-04T15:11:48.440Z,156452.03
2022-09-04T15:14:28.402Z,156423.34
2022-09-04T15:17:00.776Z,156393.38
2022-09-04T15:19:39.996Z,156386.91
2022-09-04T15:22:14.250Z,156349.19
2022-09-04T15:24:53.263Z,156338.75
2022-09-04T15:27:28.468Z,156303.63
2022-09-04T15:30:04.027Z,156308.84
2022-09-04T15:32:36.583Z,156293.22
2022-09-04T15:35:12.421Z,156263.28
2022-09-04T15:37:40.192Z,156251.53
2022-09-04T15:40:12.077Z,156288.00
2022-09-04T15:42:47.484Z,156293.22
2022-09-04T15:45:24.356Z,156271.06
2022-09-04T15:48:38.239Z,156251.53
2022-09-04T15:51:24.679Z,156256.75
2022-09-04T15:54:15.391Z,156238.53
2022-09-04T15:56:47.403Z,156256.75
2022-09-04T15:59:20.591Z,156268.53
2022-09-04T16:01:57.596Z,156238.53
2022-09-04T16:04:33.634Z,156232.00
2022-09-04T16:07:20.489Z,156224.22
2022-09-04T16:09:53.084Z,156199.50
2022-09-04T16:12:24.701Z,156176.06
2022-09-04T16:14:56.574Z,156189.06
2022-09-04T16:17:28.230Z,156181.28
2022-09-04T16:20:02.985Z,156151.38
2022-09-04T16:22:44.519Z,156120.19
2022-09-04T16:25:24.387Z,156122.75
2022-09-04T16:27:58.196Z,156125.34
2022-09-04T16:30:32.945Z,156157.88
2022-09-04T16:33:03.262Z,156165.66
2022-09-04T16:35:35.411Z,156135.75
2022-09-04T16:38:09.246Z,156152.66
2022-09-04T16:40:42.751Z,156140.97
2022-09-04T16:43:21.661Z,156146.19
2022-09-04T16:45:52.074Z,156120.19
2022-09-04T16:48:33.861Z,156137.06
2022-09-04T16:51:39.238Z,156118.88
2022-09-04T16:54:08.416Z,156111.06
2022-09-04T16:56:39.709Z,156070.69
2022-09-04T16:59:19.895Z,156074.59
2022-09-04T17:01:52.654Z,156052.53
2022-09-04T17:04:42.556Z,156039.47
2022-09-04T17:07:19.024Z,156025.22
2022-09-04T17:10:03.413Z,156023.91
2022-09-04T17:12:47.158Z,156004.38
2022-09-04T17:15:24.496Z,156004.38
2022-09-04T17:17:54.311Z,155996.59
2022-09-04T17:20:36.313Z,155965.38
2022-09-04T17:28:54.691Z,155955.00
2022-09-04T17:29:15.423Z,155944.56
2022-09-04T17:31:55.813Z,155939.41
2022-09-04T17:40:40.547Z,155893.81
2022-09-04T17:40:42.297Z,155889.91
2022-09-04T17:41:39.792Z,155861.38
2022-09-04T17:43:30.810Z,155845.75
2022-09-04T17:46:12.630Z,155797.66
2022-09-04T17:48:43.054Z,155775.59
2022-09-04T17:51:18.611Z,155710.63
2022-09-04T17:53:52.572Z,155728.78
2022-09-04T17:56:27.323Z,155659.88
2022-09-04T17:59:02.667Z,155657.31
2022-09-04T18:01:36.481Z,155609.22
2022-09-04T18:04:27.660Z,155596.25
2022-09-04T18:07:31.704Z,155531.31
2022-09-04T18:10:03.953Z,155492.31
2022-09-04T18:12:38.637Z,155441.72
2022-09-04T18:15:34.047Z,155380.66
2022-09-04T18:18:10.276Z,155352.09
2022-09-04T18:20:43.804Z,155324.84
2022-09-04T18:23:24.580Z,155313.19
2022-09-04T18:25:56.848Z,155317.09
2022-09-04T18:28:30.613Z,155261.22
2022-09-04T18:37:05.871Z,155263.81
2022-09-04T18:37:22.452Z,155239.13
2022-09-04T18:37:44.129Z,155115.94
2022-09-04T18:40:09.352Z,155174.28
2022-09-04T18:50:20.675Z,155215.78
2022-09-04T18:50:45.238Z,155246.94
2022-09-04T18:50:45.859Z,155235.28
2022-09-04T18:51:30.338Z,155269.00
2022-09-04T18:54:02.461Z,155245.66
2022-09-04T18:56:33.883Z,155274.19
2022-09-04T18:59:07.908Z,155276.81
2022-09-04T19:01:43.642Z,155309.28
2022-09-04T19:04:33.496Z,155289.78
2022-09-04T19:07:07.271Z,155289.78
2022-09-04T19:09:55.511Z,155293.63
2022-09-04T19:12:35.828Z,155313.19
2022-09-04T19:15:36.652Z,155271.59
2022-09-04T19:18:13.965Z,155261.22
2022-09-04T19:20:47.440Z,155241.75
2022-09-04T19:23:22.728Z,155205.44
2022-09-04T19:25:54.907Z,155208.03
2022-09-04T19:28:28.904Z,155253.41
2022-09-04T19:31:02.939Z,155206.72
2022-09-04T19:33:38.942Z,155197.66
2022-09-04T19:36:12.724Z,155201.53
2022-09-04T19:46:02.918Z,155170.41
2022-09-04T19:46:05.893Z,155167.81
2022-09-04T19:46:09.037Z,155105.50
2022-09-04T19:47:32.269Z,155093.84
2022-09-04T19:53:18.951Z,155121.09
2022-09-04T19:53:32.365Z,155084.75
2022-09-04T19:55:47.238Z,155088.66
2022-09-04T19:58:18.772Z,155062.66
2022-09-04T20:00:49.728Z,155066.56
2022-09-04T20:03:30.517Z,155027.66
2022-09-04T20:06:21.051Z,155006.94
2022-09-04T20:08:53.986Z,155036.72
2022-09-04T20:11:34.727Z,155000.44
2022-09-04T20:14:14.313Z,154947.28
2022-09-04T20:16:50.304Z,154960.22
2022-09-04T20:19:28.622Z,154973.19
2022-09-04T20:22:01.032Z,154980.97
2022-09-04T20:24:39.525Z,154938.22
2022-09-04T20:27:15.884Z,154908.38
2022-09-04T20:29:54.561Z,154931.72
2022-09-04T20:32:26.663Z,154912.28
2022-09-04T20:34:59.101Z,154859.03
2022-09-04T20:37:45.122Z,154838.31
2022-09-04T20:40:27.071Z,154829.28
2022-09-04T20:43:11.681Z,154846.09
2022-09-04T21:03:16.997Z,154726.88
2022-09-04T21:03:28.868Z,154678.94
2022-09-04T21:06:11.490Z,154689.31
2022-09-04T21:08:44.563Z,154698.34
2022-09-04T21:11:41.220Z,154643.94
2022-09-04T21:14:10.538Z,154636.13
2022-09-04T21:16:46.711Z,154630.94
2022-09-04T21:20:02.347Z,154630.94
2022-09-04T21:22:34.716Z,154612.84
2022-09-04T21:25:12.429Z,154597.28
2022-09-04T21:28:15.820Z,154542.88
2022-09-04T21:31:10.152Z,154545.47
2022-09-04T21:33:48.289Z,154571.38
2022-09-04T21:36:25.333Z,154573.97
2022-09-04T21:39:19.708Z,154576.53
2022-09-04T21:41:59.907Z,154573.97
2022-09-04T21:44:59.256Z,154537.69
2022-09-04T21:47:45.036Z,154498.84
2022-09-04T21:50:55.484Z,154467.75
2022-09-04T21:53:55.137Z,154462.59
2022-09-04T22:02:28.385Z,154423.75
2022-09-04T22:02:45.248Z,154426.31
2022-09-04T22:03:11.998Z,154415.97
2022-09-04T22:05:49.943Z,154421.16
2022-09-04T22:13:26.418Z,154408.22
2022-09-04T22:13:28.353Z,154392.63
2022-09-04T22:14:40.468Z,154381.00
2022-09-04T22:17:19.279Z,154368.03
2022-09-04T22:20:13.809Z,154374.50
2022-09-04T22:23:04.657Z,154405.63
2022-09-04T22:25:47.499Z,154364.16
2022-09-04T22:28:42.121Z,154344.69
2022-09-04T22:31:37.230Z,154304.59
2022-09-04T22:34:32.385Z,154325.31
2022-09-04T22:37:38.029Z,154317.53
2022-09-04T22:40:28.217Z,154291.63
2022-09-04T22:43:12.858Z,154214.00
2022-09-04T22:45:49.663Z,154226.94
2022-09-04T22:48:40.754Z,154242.47
2022-09-04T22:51:25.309Z,154245.09
2022-09-04T22:54:03.325Z,154263.22
2022-09-04T22:56:48.744Z,154193.34
2022-09-04T22:59:43.441Z,154211.41
2022-09-04T23:03:07.916Z,154234.75
2022-09-04T23:08:05.722Z,154185.53
2022-09-04T23:13:50.234Z,154186.84
2022-09-04T23:13:54.297Z,154182.94
2022-09-04T23:15:42.335Z,154164.88
2022-09-04T23:20:50.176Z,154167.47
2022-09-04T23:26:35.051Z,154198.47
2022-09-04T23:26:58.086Z,154151.94
2022-09-04T23:27:29.383Z,154101.41
2022-09-04T23:30:25.079Z,154102.69
2022-09-04T23:33:27.496Z,154083.31
2022-09-04T23:36:02.985Z,148294.50
2022-09-04T23:39:01.328Z,145333.09
2022-09-04T23:41:53.353Z,149158.84
2022-09-04T23:44:50.224Z,154118.22
2022-09-04T23:47:49.617Z,153103.09
2022-09-04T23:50:27.946Z,154097.53
2022-09-04T23:53:05.817Z,148146.00
2022-09-04T23:55:49.368Z,142195.59
2022-09-04T23:58:49.442Z,147088.09
